Time;durP1;ratioP1;P1;durP2;ratioP2;P2;SDS_P1;SDS_P2;PMS_P1;PMS_P2;Temp;Humidity;BMP_temperature;BMP_pressure;BME280_temperature;BME280_humidity;BME280_pressure;Samples;Min_cycle;Max_cycle;Signal;HPM_P1;HPM_P2
2023/09/01 00:01:47;;;;;;;5.75;3.35;;;11.20;99.90;;;;;;5132289;27;20043;-66
2023/09/01 00:04:13;;;;;;;6.97;2.65;;;11.20;99.90;;;;;;5132032;27;20043;-66
2023/09/01 00:06:38;;;;;;;8.90;3.00;;;11.40;99.90;;;;;;5130383;27;20533;-66
2023/09/01 00:09:04;;;;;;;5.85;2.10;;;11.20;99.90;;;;;;5132125;27;20061;-66
2023/09/01 00:11:29;;;;;;;7.22;2.70;;;11.40;99.90;;;;;;5132149;27;20046;-66
2023/09/01 00:13:55;;;;;;;4.90;3.10;;;11.20;99.90;;;;;;5128243;27;20042;-67
2023/09/01 00:16:21;;;;;;;5.07;2.67;;;11.10;99.90;;;;;;5124987;27;20111;-66
2023/09/01 00:18:46;;;;;;;4.93;2.72;;;11.10;99.90;;;;;;5129811;27;20516;-66
2023/09/01 00:21:12;;;;;;;5.15;2.33;;;11.10;99.90;;;;;;5131579;27;20058;-66
2023/09/01 00:23:38;;;;;;;4.70;2.13;;;11.10;99.90;;;;;;5131831;27;20070;-66
2023/09/01 00:26:03;;;;;;;6.32;2.70;;;11.10;99.90;;;;;;5124796;27;20043;-66
2023/09/01 00:28:29;;;;;;;7.80;2.60;;;11.00;99.90;;;;;;5132006;27;20574;-65
2023/09/01 00:30:59;;;;;;;6.68;2.58;;;11.00;99.90;;;;;;5131915;27;20130;-66
2023/09/01 00:33:28;;;;;;;4.13;2.63;;;10.90;99.90;;;;;;5120056;27;20363;-66
2023/09/01 00:35:55;;;;;;;4.88;2.20;;;10.90;99.90;;;;;;5126144;27;20042;-66
2023/09/01 00:38:21;;;;;;;5.55;2.78;;;11.00;99.90;;;;;;5120667;27;20114;-66
2023/09/01 00:40:48;;;;;;;6.18;2.78;;;10.80;99.90;;;;;;5120341;27;20190;-65
2023/09/01 00:43:14;;;;;;;4.63;2.20;;;10.80;99.90;;;;;;5120605;27;20529;-66
2023/09/01 00:45:40;;;;;;;4.85;2.40;;;10.80;99.90;;;;;;5122843;27;20039;-66
2023/09/01 00:48:08;;;;;;;5.55;2.92;;;10.70;99.90;;;;;;5105870;28;20039;-66
2023/09/01 00:50:36;;;;;;;4.15;2.20;;;10.70;99.90;;;;;;5121969;27;20398;-66
2023/09/01 00:53:02;;;;;;;3.80;2.25;;;10.60;99.90;;;;;;5123129;27;20509;-66
2023/09/01 00:55:29;;;;;;;4.93;2.42;;;10.60;99.90;;;;;;5122241;27;20043;-66
2023/09/01 00:57:55;;;;;;;6.45;3.03;;;10.60;99.90;;;;;;5128249;27;20118;-66
2023/09/01 01:00:20;;;;;;;4.70;3.03;;;10.50;99.90;;;;;;5122925;27;20130;-66
2023/09/01 01:02:47;;;;;;;6.10;2.72;;;10.50;99.90;;;;;;5120200;27;20035;-65
2023/09/01 01:05:15;;;;;;;5.68;2.55;;;10.50;99.90;;;;;;5101128;28;20048;-65
2023/09/01 01:08:15;;;;;;;3.85;2.70;;;10.40;99.90;;;;;;5128104;27;20162;-66
2023/09/01 01:10:52;;;;;;;3.90;2.33;;;10.40;99.90;;;;;;5025796;28;20065;-66
2023/09/01 01:13:21;;;;;;;8.35;3.25;;;10.40;99.90;;;;;;5047465;28;20099;-69
2023/09/01 01:15:49;;;;;;;5.50;3.00;;;10.30;99.90;;;;;;5047376;28;20112;-67
2023/09/01 01:18:16;;;;;;;5.60;3.13;;;10.40;99.90;;;;;;5045803;28;20060;-69
2023/09/01 01:20:48;;;;;;;6.45;2.90;;;10.40;99.90;;;;;;5047535;28;20103;-67
2023/09/01 01:23:16;;;;;;;4.03;2.58;;;10.30;99.90;;;;;;5038912;28;20091;-67
2023/09/01 01:25:52;;;;;;;5.55;2.75;;;10.30;99.90;;;;;;5047271;28;20141;-67
2023/09/01 01:28:19;;;;;;;7.22;3.25;;;10.60;99.90;;;;;;5038573;28;20052;-67
2023/09/01 01:30:47;;;;;;;9.45;2.97;;;10.40;99.90;;;;;;5046859;28;20617;-68
2023/09/01 01:33:33;;;;;;;5.53;2.83;;;10.30;99.90;;;;;;5030467;28;20065;-67
2023/09/01 01:36:17;;;;;;;9.25;3.10;;;10.20;99.90;;;;;;5030188;28;20103;-70
2023/09/01 01:38:48;;;;;;;5.05;2.72;;;10.20;99.90;;;;;;5046802;28;20041;-65
2023/09/01 01:41:35;;;;;;;5.65;2.47;;;10.20;99.90;;;;;;5047207;28;20052;-67
2023/09/01 01:44:04;;;;;;;5.22;2.63;;;10.20;99.90;;;;;;5047386;28;20448;-67
2023/09/01 01:46:31;;;;;;;4.20;2.50;;;10.10;99.90;;;;;;5045732;28;20104;-70
2023/09/01 01:48:57;;;;;;;9.90;3.85;;;10.20;99.90;;;;;;5101493;28;20048;-69
2023/09/01 01:51:22;;;;;;;7.80;3.70;;;10.10;99.90;;;;;;5106434;28;20052;-70
2023/09/01 01:53:48;;;;;;;6.88;3.30;;;10.10;99.90;;;;;;5087096;28;20040;-69
2023/09/01 01:56:15;;;;;;;5.70;3.05;;;10.10;99.90;;;;;;5099100;28;20376;-67
2023/09/01 01:58:41;;;;;;;6.25;3.00;;;10.20;99.90;;;;;;5088657;28;20058;-70
2023/09/01 02:01:07;;;;;;;5.88;2.72;;;10.10;99.90;;;;;;5098185;28;20032;-66
2023/09/01 02:03:33;;;;;;;6.13;3.13;;;10.10;99.90;;;;;;5098590;28;20122;-66
2023/09/01 02:05:59;;;;;;;7.15;3.28;;;10.10;99.90;;;;;;5101360;28;20040;-68
2023/09/01 02:08:25;;;;;;;6.20;3.15;;;10.10;99.90;;;;;;5099866;28;20047;-70
2023/09/01 02:10:50;;;;;;;6.25;2.90;;;10.10;99.90;;;;;;5098598;28;20449;-66
2023/09/01 02:13:16;;;;;;;6.20;2.65;;;10.10;99.90;;;;;;5101259;28;20047;-67
2023/09/01 02:15:53;;;;;;;7.63;3.00;;;10.10;99.90;;;;;;5082636;28;20052;-66
2023/09/01 02:18:19;;;;;;;7.82;3.58;;;10.10;99.90;;;;;;5102556;28;20560;-67
2023/09/01 02:20:45;;;;;;;6.70;3.47;;;10.10;99.90;;;;;;5101274;28;20101;-66
2023/09/01 02:23:15;;;;;;;6.95;3.63;;;10.00;99.90;;;;;;5097998;28;20039;-66
2023/09/01 02:25:41;;;;;;;5.82;3.20;;;10.10;99.90;;;;;;5110840;28;20134;-67
2023/09/01 02:28:06;;;;;;;6.45;3.45;;;10.30;99.90;;;;;;5119528;28;20142;-67
2023/09/01 02:30:32;;;;;;;13.52;4.05;;;10.00;99.90;;;;;;5129862;28;20047;-66
2023/09/01 02:32:58;;;;;;;6.90;3.53;;;10.00;99.90;;;;;;5121422;28;20043;-65
2023/09/01 02:35:23;;;;;;;7.60;3.53;;;10.00;99.90;;;;;;5099785;28;20406;-66
2023/09/01 02:37:51;;;;;;;6.13;3.28;;;9.90;99.90;;;;;;5124310;28;20078;-66
2023/09/01 02:40:17;;;;;;;4.15;2.67;;;9.90;99.90;;;;;;5119226;28;20044;-66
2023/09/01 02:42:43;;;;;;;4.32;2.85;;;9.90;99.90;;;;;;5129981;28;20036;-66
2023/09/01 02:45:13;;;;;;;8.07;3.08;;;9.90;99.90;;;;;;5129954;28;20054;-66
2023/09/01 02:47:43;;;;;;;4.93;2.50;;;9.90;99.90;;;;;;5117878;28;20491;-66
2023/09/01 02:50:09;;;;;;;7.35;3.17;;;9.80;99.90;;;;;;5120758;28;20080;-66
2023/09/01 02:52:35;;;;;;;5.40;3.28;;;9.80;99.90;;;;;;5128864;28;20872;-66
2023/09/01 02:55:01;;;;;;;5.85;3.10;;;9.80;99.90;;;;;;5111174;28;20065;-67
2023/09/01 02:57:27;;;;;;;5.60;2.60;;;9.80;99.90;;;;;;5111745;27;20047;-66
2023/09/01 02:59:53;;;;;;;4.32;2.80;;;9.80;99.90;;;;;;5133515;27;20383;-66
2023/09/01 03:02:19;;;;;;;6.25;3.33;;;9.70;99.90;;;;;;5123682;27;20047;-66
2023/09/01 03:04:47;;;;;;;5.95;3.00;;;10.10;99.90;;;;;;5133442;27;20051;-67
2023/09/01 03:07:12;;;;;;;4.95;3.10;;;9.70;99.90;;;;;;5114756;27;20050;-66
2023/09/01 03:09:38;;;;;;;6.70;3.17;;;9.70;99.90;;;;;;5132951;27;20457;-66
2023/09/01 03:12:04;;;;;;;5.95;2.80;;;9.70;99.90;;;;;;5126541;27;20095;-66
2023/09/01 03:14:30;;;;;;;5.10;2.80;;;9.60;99.90;;;;;;5133081;27;20085;-66
2023/09/01 03:16:56;;;;;;;7.00;3.00;;;9.60;99.90;;;;;;5132527;27;20035;-66
2023/09/01 03:19:22;;;;;;;6.13;2.72;;;9.60;99.90;;;;;;5132919;27;20572;-66
2023/09/01 03:21:47;;;;;;;6.93;3.58;;;9.60;99.90;;;;;;5129613;27;20147;-66
2023/09/01 03:24:13;;;;;;;5.97;2.90;;;9.60;99.90;;;;;;5131285;27;20074;-66
2023/09/01 03:26:39;;;;;;;4.88;2.67;;;9.50;99.90;;;;;;5132557;27;20050;-66
2023/09/01 03:29:04;;;;;;;5.50;2.72;;;9.50;99.90;;;;;;5132487;27;20047;-66
2023/09/01 03:31:31;;;;;;;6.03;2.40;;;9.50;99.90;;;;;;5131750;27;20035;-65
2023/09/01 03:33:57;;;;;;;4.93;2.85;;;9.50;99.90;;;;;;5129504;27;20043;-67
2023/09/01 03:36:23;;;;;;;4.20;2.20;;;9.70;99.90;;;;;;5131561;27;20043;-66
2023/09/01 03:38:48;;;;;;;6.88;2.45;;;9.40;99.90;;;;;;5114168;27;20092;-66
2023/09/01 03:41:14;;;;;;;5.18;2.65;;;9.40;99.90;;;;;;5132667;27;20043;-66
2023/09/01 03:43:40;;;;;;;4.15;2.35;;;9.40;99.90;;;;;;5128796;27;20122;-65
2023/09/01 03:46:05;;;;;;;4.40;2.20;;;9.30;99.90;;;;;;5125580;27;20035;-66
2023/09/01 03:48:32;;;;;;;4.80;1.90;;;9.30;99.90;;;;;;5105863;27;20054;-66
2023/09/01 03:51:16;;;;;;;3.92;2.13;;;9.30;99.90;;;;;;5131711;27;20092;-66
2023/09/01 03:53:42;;;;;;;5.97;2.58;;;9.30;99.90;;;;;;5123045;27;20039;-65
2023/09/01 03:56:13;;;;;;;3.90;2.45;;;9.30;99.90;;;;;;5124944;27;20039;-66
2023/09/01 03:58:40;;;;;;;5.35;2.53;;;9.30;99.90;;;;;;5109030;27;20057;-66
2023/09/01 04:01:08;;;;;;;3.80;2.47;;;9.20;99.90;;;;;;5123315;27;20140;-68
2023/09/01 04:03:37;;;;;;;3.72;2.22;;;9.30;99.90;;;;;;5121269;27;20047;-69
2023/09/01 04:06:05;;;;;;;4.60;2.40;;;9.30;99.90;;;;;;5126810;27;20089;-66
2023/09/01 04:08:30;;;;;;;4.60;2.40;;;9.30;99.90;;;;;;5119560;27;20113;-67
2023/09/01 04:10:56;;;;;;;3.83;2.08;;;9.20;99.90;;;;;;5123070;27;20039;-67
2023/09/01 04:13:22;;;;;;;8.48;2.67;;;9.20;99.90;;;;;;5131492;27;20418;-69
2023/09/01 04:15:47;;;;;;;3.55;1.83;;;9.20;99.90;;;;;;5130648;27;20135;-70
2023/09/01 04:18:13;;;;;;;4.38;2.25;;;9.10;99.90;;;;;;5124426;27;20043;-70
2023/09/01 04:20:39;;;;;;;5.50;2.22;;;9.10;99.90;;;;;;5123277;27;20050;-67
2023/09/01 04:23:05;;;;;;;4.53;2.20;;;9.10;99.90;;;;;;5126211;27;20039;-66
2023/09/01 04:25:33;;;;;;;4.15;2.10;;;9.10;99.90;;;;;;5130295;27;20367;-68
2023/09/01 04:27:59;;;;;;;3.53;1.90;;;9.10;99.90;;;;;;5123304;27;20063;-67
2023/09/01 04:30:24;;;;;;;3.22;1.63;;;9.10;99.90;;;;;;5122701;27;20038;-67
2023/09/01 04:32:50;;;;;;;2.58;1.50;;;9.10;99.90;;;;;;5130704;27;20078;-68
2023/09/01 04:35:16;;;;;;;4.25;2.03;;;9.20;99.90;;;;;;5121991;27;20043;-69
2023/09/01 04:37:41;;;;;;;5.55;2.13;;;9.00;99.90;;;;;;5125237;27;20035;-67
2023/09/01 04:40:09;;;;;;;2.63;1.63;;;9.30;99.90;;;;;;5120133;27;20050;-69
2023/09/01 04:42:34;;;;;;;3.97;2.20;;;9.00;99.90;;;;;;5123415;27;20077;-70
2023/09/01 04:45:00;;;;;;;7.18;1.98;;;9.00;99.90;;;;;;5129851;27;20123;-70
2023/09/01 04:47:27;;;;;;;3.13;1.70;;;9.00;99.90;;;;;;5123876;27;20397;-69
2023/09/01 04:49:52;;;;;;;3.55;1.90;;;8.90;99.90;;;;;;5131098;27;20122;-69
2023/09/01 04:52:18;;;;;;;4.03;2.10;;;8.90;99.90;;;;;;5131041;27;20134;-66
2023/09/01 04:54:44;;;;;;;3.33;2.17;;;9.10;99.90;;;;;;5131494;27;20114;-68
2023/09/01 04:57:09;;;;;;;4.30;2.28;;;8.90;99.90;;;;;;5127561;27;20039;-69
2023/09/01 04:59:35;;;;;;;3.63;1.55;;;9.00;99.90;;;;;;5131164;27;20039;-68
2023/09/01 05:02:00;;;;;;;2.08;1.35;;;8.90;99.90;;;;;;5124767;27;20044;-67
2023/09/01 05:04:26;;;;;;;3.20;1.70;;;9.00;99.90;;;;;;5128251;27;20043;-67
2023/09/01 05:06:52;;;;;;;5.38;1.90;;;8.90;99.90;;;;;;5120684;27;20394;-67
2023/09/01 05:09:19;;;;;;;5.13;2.33;;;9.00;99.90;;;;;;5130336;27;20397;-67
2023/09/01 05:11:45;;;;;;;3.10;2.08;;;9.00;99.90;;;;;;5130540;27;20047;-66
2023/09/01 05:14:10;;;;;;;5.05;2.30;;;9.00;99.90;;;;;;5125139;27;20035;-66
2023/09/01 05:16:36;;;;;;;3.50;2.08;;;9.00;99.90;;;;;;5130500;27;20082;-66
2023/09/01 05:19:02;;;;;;;3.65;1.90;;;9.00;99.90;;;;;;5111781;27;20066;-67
2023/09/01 05:21:28;;;;;;;4.03;2.08;;;9.00;99.90;;;;;;5121768;27;20110;-66
2023/09/01 05:23:53;;;;;;;3.13;1.67;;;9.10;99.90;;;;;;5122063;27;20700;-66
2023/09/01 05:26:19;;;;;;;4.85;2.20;;;9.10;99.90;;;;;;5122060;27;20537;-66
2023/09/01 05:28:45;;;;;;;4.93;1.85;;;9.10;99.90;;;;;;5122054;27;20458;-66
2023/09/01 05:31:11;;;;;;;2.55;1.75;;;9.20;99.90;;;;;;5122049;27;20036;-65
2023/09/01 05:33:36;;;;;;;3.38;1.90;;;9.10;99.90;;;;;;5119629;27;20470;-65
2023/09/01 05:36:02;;;;;;;4.80;2.03;;;9.20;99.90;;;;;;5121913;27;20039;-67
2023/09/01 05:38:28;;;;;;;4.60;2.08;;;9.20;99.90;;;;;;5121906;27;20050;-67
2023/09/01 05:40:58;;;;;;;3.42;1.60;;;9.20;99.90;;;;;;5123340;27;20047;-66
2023/09/01 05:43:24;;;;;;;2.90;1.80;;;9.30;99.90;;;;;;5128535;27;20495;-66
2023/09/01 05:45:49;;;;;;;4.75;2.00;;;9.30;99.90;;;;;;5121984;27;20060;-66
2023/09/01 05:48:15;;;;;;;3.55;2.10;;;9.40;99.90;;;;;;5121644;27;20043;-66
2023/09/01 05:50:42;;;;;;;4.13;2.30;;;9.50;99.90;;;;;;5103441;28;20068;-66
2023/09/01 05:53:08;;;;;;;4.38;2.35;;;9.50;99.90;;;;;;5121469;28;20061;-66
2023/09/01 05:55:34;;;;;;;5.25;2.00;;;9.60;99.90;;;;;;5108148;28;20051;-66
2023/09/01 05:57:59;;;;;;;3.65;2.05;;;9.70;99.90;;;;;;5125018;28;20039;-66
2023/09/01 06:00:25;;;;;;;4.07;2.35;;;9.90;99.90;;;;;;5120415;28;20052;-66
2023/09/01 06:02:52;;;;;;;4.20;2.30;;;9.80;99.90;;;;;;5126616;28;20085;-67
2023/09/01 06:05:18;;;;;;;4.35;2.33;;;9.90;99.90;;;;;;5118613;28;20458;-66
2023/09/01 06:07:44;;;;;;;7.63;2.60;;;10.00;99.90;;;;;;5120365;28;20107;-66
2023/09/01 06:10:09;;;;;;;7.55;2.90;;;10.50;99.90;;;;;;5124406;28;20043;-66
2023/09/01 06:12:35;;;;;;;7.30;3.10;;;10.20;99.90;;;;;;5118410;28;20402;-66
2023/09/01 06:15:01;;;;;;;6.47;3.08;;;10.20;99.90;;;;;;5121805;28;20035;-66
2023/09/01 06:17:26;;;;;;;12.73;3.35;;;10.30;99.90;;;;;;5121962;28;20125;-66
2023/09/01 06:19:52;;;;;;;7.93;3.72;;;10.40;99.90;;;;;;5121035;28;20083;-64
2023/09/01 06:22:17;;;;;;;6.03;3.00;;;10.50;99.90;;;;;;5121702;28;20126;-66
2023/09/01 06:24:43;;;;;;;7.20;3.75;;;10.80;99.90;;;;;;5122231;28;20047;-66
2023/09/01 06:27:09;;;;;;;7.10;3.70;;;10.70;99.90;;;;;;5120616;28;20047;-66
2023/09/01 06:29:34;;;;;;;6.63;3.20;;;10.80;99.90;;;;;;5121137;28;20054;-65
2023/09/01 06:32:00;;;;;;;7.28;3.20;;;10.90;99.90;;;;;;5121568;27;20043;-66
2023/09/01 06:34:25;;;;;;;7.75;3.78;;;11.20;99.90;;;;;;5125190;27;20042;-65
2023/09/01 06:36:51;;;;;;;8.65;3.20;;;11.50;99.90;;;;;;5125510;27;20038;-66
2023/09/01 06:39:17;;;;;;;8.35;3.42;;;11.20;99.90;;;;;;5123004;27;20557;-66
2023/09/01 06:41:45;;;;;;;7.70;3.58;;;11.50;99.90;;;;;;5127021;27;20047;-66
2023/09/01 06:44:11;;;;;;;5.20;3.08;;;11.50;99.90;;;;;;5124547;27;20039;-68
2023/09/01 06:46:36;;;;;;;7.18;2.85;;;11.70;99.90;;;;;;5124689;27;20114;-66
2023/09/01 06:49:02;;;;;;;7.78;3.58;;;11.70;99.90;;;;;;5125335;27;20466;-66
2023/09/01 06:51:30;;;;;;;5.78;3.05;;;11.80;99.90;;;;;;5122536;27;20089;-66
2023/09/01 06:53:56;;;;;;;7.35;3.20;;;12.40;99.90;;;;;;5103312;28;20138;-66
2023/09/01 06:56:22;;;;;;;11.45;3.45;;;12.00;99.90;;;;;;5128003;27;20047;-66
2023/09/01 06:58:47;;;;;;;10.05;3.33;;;12.10;99.90;;;;;;5130160;27;20386;-66
2023/09/01 07:01:15;;;;;;;10.95;3.13;;;12.30;99.90;;;;;;5128618;27;20054;-66
2023/09/01 07:03:41;;;;;;;6.40;3.22;;;12.30;99.90;;;;;;5108994;27;20043;-65
2023/09/01 07:06:07;;;;;;;6.85;2.80;;;12.40;99.90;;;;;;5124562;27;20176;-65
2023/09/01 07:08:32;;;;;;;6.93;3.08;;;12.50;99.90;;;;;;5126215;27;20507;-66
2023/09/01 07:11:06;;;;;;;5.03;2.25;;;12.70;99.90;;;;;;5125028;27;20125;-66
2023/09/01 07:13:32;;;;;;;6.03;2.40;;;12.80;99.90;;;;;;5124457;27;20519;-66
2023/09/01 07:15:58;;;;;;;6.47;2.40;;;12.90;99.90;;;;;;5130400;27;20124;-66
2023/09/01 07:18:23;;;;;;;6.00;2.20;;;13.00;99.90;;;;;;5121433;27;20070;-66
2023/09/01 07:20:50;;;;;;;4.68;2.08;;;13.10;99.90;;;;;;5111702;27;20510;-65
2023/09/01 07:23:16;;;;;;;6.30;2.60;;;13.30;99.90;;;;;;5128565;27;20510;-67
2023/09/01 07:25:44;;;;;;;10.90;2.45;;;13.40;99.90;;;;;;5120981;27;20113;-67
2023/09/01 07:28:13;;;;;;;6.60;2.42;;;13.50;99.90;;;;;;5123961;27;20050;-66
2023/09/01 07:30:39;;;;;;;5.97;2.55;;;13.60;99.90;;;;;;5123867;27;20043;-67
2023/09/01 07:33:05;;;;;;;6.28;2.28;;;13.70;99.90;;;;;;5105773;27;20047;-66
2023/09/01 07:35:31;;;;;;;5.90;2.40;;;13.80;99.90;;;;;;5124303;27;20062;-67
2023/09/01 07:37:57;;;;;;;4.38;1.90;;;14.00;99.90;;;;;;5122222;27;20051;-65
2023/09/01 07:40:23;;;;;;;8.88;2.70;;;14.10;99.90;;;;;;5132059;27;20035;-65
2023/09/01 07:42:49;;;;;;;5.03;2.10;;;14.20;99.90;;;;;;5133307;27;20031;-66
2023/09/01 07:45:15;;;;;;;9.45;2.90;;;14.30;99.90;;;;;;5132692;27;20466;-66
2023/09/01 07:47:40;;;;;;;4.30;1.90;;;14.30;99.90;;;;;;5132591;27;20079;-66
2023/09/01 07:50:07;;;;;;;5.60;2.00;;;14.50;99.90;;;;;;5131800;27;20031;-66
2023/09/01 07:52:32;;;;;;;8.98;2.10;;;14.60;99.90;;;;;;5129206;27;20043;-66
2023/09/01 07:54:58;;;;;;;6.07;1.58;;;14.70;99.90;;;;;;5108052;27;20394;-66
2023/09/01 07:57:24;;;;;;;5.13;1.88;;;14.80;99.90;;;;;;5123201;27;20057;-66
2023/09/01 07:59:49;;;;;;;5.55;2.08;;;14.90;99.90;;;;;;5123240;27;20088;-66
2023/09/01 08:02:15;;;;;;;4.25;1.77;;;14.90;99.90;;;;;;5125307;27;20056;-67
2023/09/01 08:04:41;;;;;;;8.30;1.58;;;15.10;99.90;;;;;;5122585;27;20085;-67
2023/09/01 08:07:06;;;;;;;4.32;1.63;;;15.10;99.90;;;;;;5105546;27;20670;-66
2023/09/01 08:09:32;;;;;;;5.63;1.65;;;15.30;99.90;;;;;;5122446;27;20035;-66
2023/09/01 08:11:57;;;;;;;5.13;1.60;;;15.40;99.90;;;;;;5128662;27;20497;-67
2023/09/01 08:14:23;;;;;;;3.10;1.23;;;15.50;99.90;;;;;;5120648;27;20051;-66
2023/09/01 08:16:49;;;;;;;4.57;1.40;;;15.60;99.90;;;;;;5125598;27;20051;-67
2023/09/01 08:19:15;;;;;;;6.85;2.10;;;15.80;99.90;;;;;;5131740;27;20043;-67
2023/09/01 08:21:41;;;;;;;5.50;1.00;;;15.80;99.90;;;;;;5113590;27;20057;-67
2023/09/01 08:24:07;;;;;;;5.35;1.70;;;15.90;99.90;;;;;;5113272;27;20118;-69
2023/09/01 08:26:33;;;;;;;3.17;1.33;;;16.10;99.90;;;;;;5131722;27;20059;-67
2023/09/01 08:28:59;;;;;;;3.22;1.20;;;16.20;99.90;;;;;;5132045;27;20047;-67
2023/09/01 08:31:25;;;;;;;5.93;1.42;;;16.30;99.90;;;;;;5131788;27;20124;-67
2023/09/01 08:33:52;;;;;;;6.13;1.42;;;16.30;99.90;;;;;;5131731;27;20073;-67
2023/09/01 08:36:17;;;;;;;10.55;1.63;;;16.40;99.90;;;;;;5113126;27;20058;-66
2023/09/01 08:38:43;;;;;;;5.45;1.27;;;16.50;99.90;;;;;;5131739;27;20035;-67
2023/09/01 08:41:09;;;;;;;3.38;1.00;;;16.60;99.90;;;;;;5131337;27;20039;-67
2023/09/01 08:43:38;;;;;;;4.13;1.23;;;16.80;99.90;;;;;;5131848;27;20401;-67
2023/09/01 08:46:05;;;;;;;8.30;1.40;;;16.90;99.90;;;;;;5131606;27;20084;-68
2023/09/01 08:48:34;;;;;;;5.93;1.40;;;17.00;99.90;;;;;;5131479;27;20533;-66
2023/09/01 08:51:00;;;;;;;6.05;2.67;;;17.00;99.90;;;;;;5131203;27;20541;-67
2023/09/01 08:53:26;;;;;;;3.08;1.42;;;17.00;99.90;;;;;;5131404;27;20050;-67
2023/09/01 08:55:53;;;;;;;3.90;1.17;;;17.20;99.90;;;;;;5130565;27;20495;-67
2023/09/01 08:58:18;;;;;;;4.68;1.50;;;17.30;99.90;;;;;;5131595;27;20679;-69
2023/09/01 09:00:44;;;;;;;5.65;1.10;;;17.30;99.90;;;;;;5131173;27;20130;-66
2023/09/01 09:03:12;;;;;;;4.95;1.00;;;17.40;99.90;;;;;;5131220;27;20043;-67
2023/09/01 09:05:38;;;;;;;6.45;1.20;;;17.40;99.90;;;;;;5113111;27;20054;-67
2023/09/01 09:08:06;;;;;;;6.18;1.20;;;17.50;99.90;;;;;;5131310;27;20142;-67
2023/09/01 09:10:38;;;;;;;4.15;1.13;;;17.50;99.90;;;;;;5112275;27;20466;-67
2023/09/01 09:13:22;;;;;;;5.55;1.23;;;17.60;99.90;;;;;;5131267;27;20146;-67
2023/09/01 09:16:03;;;;;;;4.22;1.17;;;17.50;99.90;;;;;;5130910;27;20054;-67
2023/09/01 09:18:29;;;;;;;4.05;1.38;;;17.70;99.90;;;;;;5130928;27;20086;-67
2023/09/01 09:20:55;;;;;;;5.50;1.10;;;17.70;99.90;;;;;;5130713;27;20120;-67
2023/09/01 09:23:20;;;;;;;8.80;1.48;;;17.80;99.90;;;;;;5130729;27;20383;-67
2023/09/01 09:25:49;;;;;;;4.65;1.40;;;17.80;99.90;;;;;;5130857;27;20549;-69
2023/09/01 09:28:16;;;;;;;5.05;1.60;;;17.80;99.90;;;;;;5102104;28;20417;-68
2023/09/01 09:30:52;;;;;;;5.50;1.20;;;17.90;99.90;;;;;;5110006;28;20408;-67
2023/09/01 09:33:32;;;;;;;2.50;0.95;;;17.90;99.90;;;;;;5101983;28;20036;-68
2023/09/01 09:35:58;;;;;;;2.83;1.02;;;18.00;99.90;;;;;;5109600;28;20043;-67
2023/09/01 09:38:38;;;;;;;6.50;0.98;;;18.00;99.90;;;;;;5110175;28;20043;-66
2023/09/01 09:41:03;;;;;;;5.90;1.00;;;18.10;99.90;;;;;;5110294;28;20043;-68
2023/09/01 09:43:41;;;;;;;6.15;1.67;;;18.20;99.90;;;;;;5109531;28;20047;-67
2023/09/01 09:46:07;;;;;;;5.10;1.35;;;18.20;99.90;;;;;;5109880;28;20495;-68
2023/09/01 09:48:34;;;;;;;7.20;1.05;;;18.20;99.90;;;;;;5091650;28;20060;-67
2023/09/01 09:51:02;;;;;;;7.20;1.20;;;18.20;99.90;;;;;;5109679;28;20063;-67
2023/09/01 09:53:32;;;;;;;3.88;1.13;;;18.20;99.90;;;;;;5109936;28;20039;-67
2023/09/01 09:56:00;;;;;;;4.95;0.80;;;18.30;99.90;;;;;;5091623;28;20035;-67
2023/09/01 09:58:39;;;;;;;4.28;1.00;;;18.30;99.90;;;;;;5109274;28;20122;-67
2023/09/01 10:01:13;;;;;;;3.92;0.90;;;18.20;99.90;;;;;;5109541;28;20051;-67
2023/09/01 10:03:40;;;;;;;3.72;1.00;;;18.20;99.90;;;;;;5109778;28;20070;-67
2023/09/01 10:06:07;;;;;;;3.92;0.90;;;18.30;99.90;;;;;;5109875;28;20059;-68
2023/09/01 10:08:33;;;;;;;3.38;0.70;;;18.30;99.90;;;;;;5112614;28;20099;-67
2023/09/01 10:11:01;;;;;;;4.05;1.00;;;18.40;99.90;;;;;;5113902;28;20058;-67
2023/09/01 10:13:28;;;;;;;2.65;0.80;;;18.50;99.90;;;;;;5113645;28;20078;-68
2023/09/01 10:15:55;;;;;;;4.32;1.10;;;18.50;99.90;;;;;;5113427;28;20047;-67
2023/09/01 10:18:22;;;;;;;6.65;1.00;;;18.60;99.90;;;;;;5113767;28;20495;-68
2023/09/01 10:20:48;;;;;;;4.03;0.75;;;18.60;99.90;;;;;;5113266;28;20052;-67
2023/09/01 10:23:14;;;;;;;5.38;0.95;;;18.80;99.90;;;;;;5113789;28;20050;-68
2023/09/01 10:25:40;;;;;;;3.53;1.00;;;19.00;99.90;;;;;;5113327;28;20056;-68
2023/09/01 10:28:13;;;;;;;5.90;1.00;;;19.10;99.90;;;;;;5123142;27;20200;-67
2023/09/01 10:30:45;;;;;;;5.13;1.10;;;19.40;99.90;;;;;;5124917;27;20051;-67
2023/09/01 10:33:14;;;;;;;4.88;1.10;;;19.60;99.90;;;;;;5123296;27;20122;-69
2023/09/01 10:35:48;;;;;;;3.65;0.88;;;19.70;99.90;;;;;;5109941;27;20039;-67
2023/09/01 10:38:22;;;;;;;3.55;0.80;;;19.80;99.90;;;;;;5133684;27;20047;-67
2023/09/01 10:40:52;;;;;;;5.93;1.10;;;19.80;99.90;;;;;;5133725;27;20035;-67
2023/09/01 10:43:33;;;;;;;4.90;0.88;;;20.00;99.90;;;;;;5114599;27;20130;-68
2023/09/01 10:46:16;;;;;;;6.07;1.33;;;20.10;99.90;;;;;;5130671;27;20039;-68
2023/09/01 10:48:58;;;;;;;3.33;0.82;;;20.20;99.90;;;;;;5122286;27;20073;-67
2023/09/01 10:51:34;;;;;;;3.45;1.08;;;20.50;99.90;;;;;;5123456;27;20047;-67
2023/09/01 10:54:20;;;;;;;4.68;1.00;;;20.60;99.90;;;;;;5124931;27;20053;-67
2023/09/01 10:56:57;;;;;;;7.88;1.23;;;20.70;99.90;;;;;;5128012;27;20443;-66
2023/09/01 10:59:37;;;;;;;3.60;1.10;;;20.70;99.90;;;;;;5122146;27;20036;-67
2023/09/01 11:02:22;;;;;;;4.55;1.20;;;20.80;99.90;;;;;;5124563;27;20054;-68
2023/09/01 11:04:49;;;;;;;5.93;1.67;;;21.10;99.90;;;;;;5121977;27;20051;-68
2023/09/01 11:07:15;;;;;;;6.07;1.10;;;21.20;99.90;;;;;;5121746;27;20134;-69
2023/09/01 11:09:42;;;;;;;6.35;1.45;;;21.40;99.90;;;;;;5130255;27;20043;-67
2023/09/01 11:12:09;;;;;;;4.93;1.15;;;21.60;99.90;;;;;;5121412;27;20054;-68
2023/09/01 11:14:37;;;;;;;4.72;1.15;;;21.90;99.90;;;;;;5093601;27;20787;-68
2023/09/01 11:17:03;;;;;;;3.63;1.08;;;22.10;99.90;;;;;;5121385;27;20052;-68
2023/09/01 11:19:48;;;;;;;5.30;1.30;;;22.20;99.90;;;;;;5131348;27;20047;-67
2023/09/01 11:22:14;;;;;;;6.82;1.52;;;22.10;99.90;;;;;;5125515;27;20039;-68
2023/09/01 11:24:39;;;;;;;4.28;1.50;;;22.30;99.90;;;;;;5124537;27;20054;-67
2023/09/01 11:27:06;;;;;;;7.78;1.75;;;22.20;99.90;;;;;;5118705;27;20043;-67
2023/09/01 11:29:31;;;;;;;7.05;1.90;;;22.20;99.90;;;;;;5125461;28;20127;-67
2023/09/01 11:31:57;;;;;;;6.80;2.40;;;22.20;99.90;;;;;;5120850;28;20123;-67
2023/09/01 11:34:22;;;;;;;9.07;2.17;;;22.30;99.90;;;;;;5121814;28;20067;-67
2023/09/01 11:36:52;;;;;;;8.05;1.98;;;22.40;99.90;;;;;;5119832;28;20778;-67
2023/09/01 11:39:18;;;;;;;8.20;2.72;;;22.40;99.90;;;;;;5122449;28;20044;-68
2023/09/01 11:41:45;;;;;;;11.68;2.65;;;22.50;99.90;;;;;;5123158;28;20049;-67
2023/09/01 11:44:11;;;;;;;6.78;2.58;;;22.60;99.90;;;;;;5122022;28;20085;-67
2023/09/01 11:46:38;;;;;;;6.25;2.22;;;22.70;99.90;;;;;;5123679;28;20679;-68
2023/09/01 11:49:05;;;;;;;8.57;2.22;;;22.80;99.90;;;;;;5123142;28;20027;-68
2023/09/01 11:51:38;;;;;;;5.68;2.42;;;22.90;99.90;;;;;;5119951;28;20051;-68
2023/09/01 11:54:04;;;;;;;10.02;2.75;;;22.90;99.90;;;;;;5119642;28;20092;-68
2023/09/01 11:56:30;;;;;;;9.38;2.90;;;23.00;99.90;;;;;;5124840;28;20035;-67
2023/09/01 11:58:58;;;;;;;7.93;2.50;;;23.10;99.90;;;;;;5107656;28;20039;-67
2023/09/01 12:01:27;;;;;;;9.98;2.83;;;23.20;99.90;;;;;;5127029;28;20073;-68
2023/09/01 12:03:54;;;;;;;6.97;2.65;;;23.30;99.90;;;;;;5130388;28;20043;-68
2023/09/01 12:06:24;;;;;;;8.00;3.03;;;23.50;99.90;;;;;;5131270;28;20115;-68
2023/09/01 12:08:53;;;;;;;10.10;3.30;;;23.60;99.90;;;;;;5131060;28;20043;-68
2023/09/01 12:11:19;;;;;;;7.82;3.10;;;23.80;99.90;;;;;;5130574;28;20051;-68
2023/09/01 12:13:45;;;;;;;7.78;2.28;;;24.00;99.90;;;;;;5111857;28;20062;-67
2023/09/01 12:16:24;;;;;;;8.38;3.00;;;23.80;99.90;;;;;;5124928;28;20178;-67
2023/09/01 12:18:53;;;;;;;13.68;3.03;;;23.60;99.90;;;;;;5112087;28;20047;-67
2023/09/01 12:21:18;;;;;;;6.53;2.22;;;23.60;99.90;;;;;;5126930;28;20515;-67
2023/09/01 12:23:46;;;;;;;5.72;2.33;;;23.50;99.90;;;;;;5129793;28;20126;-68
2023/09/01 12:26:13;;;;;;;8.50;2.60;;;23.50;99.90;;;;;;5092139;27;1093841;-68
2023/09/01 12:28:41;;;;;;;6.22;2.10;;;23.40;99.90;;;;;;5131575;27;20509;-69
2023/09/01 12:31:09;;;;;;;8.40;2.72;;;23.50;99.90;;;;;;5130959;27;20047;-67
2023/09/01 12:33:35;;;;;;;9.95;3.15;;;23.60;99.90;;;;;;5131158;27;20046;-67
2023/09/01 12:36:02;;;;;;;8.90;2.65;;;23.60;99.90;;;;;;5131276;27;20088;-67
2023/09/01 12:38:27;;;;;;;10.90;2.55;;;23.60;99.90;;;;;;5131606;27;20047;-67
2023/09/01 12:40:53;;;;;;;12.30;3.25;;;23.50;99.90;;;;;;5131682;27;20039;-68
2023/09/01 12:43:20;;;;;;;6.55;2.70;;;23.40;99.90;;;;;;5131398;27;20050;-67
2023/09/01 12:45:46;;;;;;;7.75;2.83;;;23.30;99.90;;;;;;5112446;27;20042;-67
2023/09/01 12:48:14;;;;;;;10.80;3.67;;;23.40;99.90;;;;;;5131018;27;20039;-67
2023/09/01 12:50:44;;;;;;;10.05;2.90;;;23.50;99.90;;;;;;5130928;27;20126;-68